Meath Environmental Platform

Observations for Trim Market St

Time AQI Temp °C Hum % Pres Pa CO μg/m³ H₂S μg/m³ NO μg/m³ NO₂ μg/m³ O₃ μg/m³ SO₂ μg/m³ PM1 μg/m³ PM2.5 μg/m³ PM10 μg/m³
Monday 24 August 2026
19:32 4 21.2 44 64,874 0 0.85 1.02 18.76 75.49 0 2.85 6.87 8.3
19:26 4 21.4 44 65,062 0 1.69 0.98 19.74 72.79 0 3.56 6.9 9.09
19:25 4 21.5 44 65,076 0 1.69 0.97 20.43 79.09 0 3.56 7.95 9.87
19:24 4 21.5 44 65,093 0 2.41 0.93 30.14 69.92 0 2.14 7.44 10.66
19:22 4 21.6 43 65,147 0 2.67 0.95 24.86 70.99 0 4.28 7.97 9.88
19:21 4 21.6 43 65,159 0 1.19 0.96 20.37 73.71 0 1.43 4.84 6.74
19:20 4 21.7 43 65,203 0 1.21 0.92 16.33 79.72 0 1.43 5.88 7.53
19:19 4 21.7 43 65,194 0 1.35 0.97 20 70.37 0 1.43 5.89 8.31
19:18 4 21.7 43 65,186 0 0.87 0.93 32.94 57.72 0 1.43 5.37 5.95
19:16 4 21.8 43 65,168 0 0.18 0.79 14.74 83.23 0 2.85 5.89 6.74
19:15 4 21.9 43 65,147 0 0 0.8 14.46 74.83 0 3.56 7.46 9.88
19:08 4 22.2 44 65,001 0 4.54 0.83 20 83.38 0 2.14 5.87 6.74
19:02 4 22.5 44 64,929 0 9.71 0.72 34.39 92.36 0 3.56 5.87 7.53
19:00 4 22.6 43 64,999 0 10.51 0.76 34.76 105.52 0 3.56 7.46 10.67
18:59 4 22.6 43 65,046 0 11.54 0.66 36.87 99.13 0 4.28 7.47 9.1
18:55 4 22.8 42 65,164 0 11.8 0.72 37.6 92.93 0 2.85 7.51 11.48
18:54 4 22.8 42 65,205 0 11.25 0.72 36.76 95.22 0 2.14 5.41 5.94
18:53 4 22.9 42 65,226 0 11.09 0.76 33.83 101.66 0 3.56 7.52 10.69
18:52 4 23 42 65,250 0 10.11 0.64 32.5 109.16 0 2.85 7 9.9
18:51 4 23 42 65,280 0 10.29 0.68 30.39 89.48 0 2.85 7.01 8.32